CheckWX is a tool to help pilots better visualize weather data.  It is not intended as a substitute for an official pre-flight weather briefing.

09:13:50 UTC

KGEG METAR
Spokane International Airport
Spokane, Washington, USA
Current

21 mins ago

KGEG 250853Z 20007KT 10SM BKN150 16/06 A2988 RMK AO2 SLP102 T01610061 53001
Observed
Aug-25 @ 08:53 UTC
Wind
  • 200° at 7 KTS
Visibility
10 SM
Flight Rules
VFR
Cloud Levels
  • Broken at 15,000' AGL
Temperature
16°C / 61°F
Dewpoint
C / 43°F
Humidity
52%
Altimeter
29.88" Hg
Pressure
1011.82 hPa
Previous

1 hour ago

KGEG 250753Z 22007KT 10SM BKN140 17/06 A2987 RMK AO2 SLP099 T01720056 402720167
Observed
Aug-25 @ 07:53 UTC
Wind
  • 220° at 7 KTS
Visibility
10 SM
Flight Rules
VFR
Cloud Levels
  • Broken at 14,000' AGL
Temperature
17°C / 63°F
Dewpoint
C / 43°F
Humidity
49%
Altimeter
29.87" Hg
Pressure
1011.52 hPa
Previous

2 hours ago

KGEG 250653Z 25009KT 10SM FEW150 18/06 A2987 RMK AO2 SLP098 T01780061
Observed
Aug-25 @ 06:53 UTC
Wind
  • 250° at 9 KTS
Visibility
10 SM
Flight Rules
VFR
Cloud Levels
  • Few at 15,000' AGL
Temperature
18°C / 64°F
Dewpoint
C / 43°F
Humidity
46%
Altimeter
29.87" Hg
Pressure
1011.52 hPa